createdAt,value
2019-02-14T00:01:00.456Z,19.71
2019-02-14T00:03:27.693Z,19.72
2019-02-14T00:05:54.909Z,19.74
2019-02-14T00:08:22.117Z,19.74
2019-02-14T00:10:49.264Z,19.81
2019-02-14T00:13:16.534Z,19.77
2019-02-14T00:15:43.812Z,19.76
2019-02-14T00:18:11.087Z,19.79
2019-02-14T00:20:38.411Z,19.79
2019-02-14T00:23:05.688Z,19.77
2019-02-14T00:25:33.086Z,19.76
2019-02-14T00:28:00.371Z,19.76
2019-02-14T00:30:27.619Z,19.74
2019-02-14T00:32:54.914Z,19.74
2019-02-14T00:35:25.192Z,19.71
2019-02-14T00:37:51.261Z,19.73
2019-02-14T00:40:18.627Z,19.70
2019-02-14T00:42:45.929Z,19.70
2019-02-14T00:45:13.217Z,19.70
2019-02-14T00:47:40.389Z,19.68
2019-02-14T00:50:07.718Z,19.68
2019-02-14T00:52:34.911Z,19.68
2019-02-14T00:55:02.064Z,19.67
2019-02-14T00:57:29.261Z,19.69
2019-02-14T00:59:56.475Z,19.71
2019-02-14T01:02:23.687Z,19.70
2019-02-14T01:04:50.966Z,19.67
2019-02-14T01:07:18.136Z,19.66
2019-02-14T01:09:45.327Z,19.66
2019-02-14T01:12:12.707Z,19.65
2019-02-14T01:14:39.927Z,19.66
2019-02-14T01:17:07.124Z,19.64
2019-02-14T01:19:34.562Z,19.64
2019-02-14T01:22:01.783Z,19.68
2019-02-14T01:24:28.929Z,19.71
2019-02-14T01:26:56.212Z,19.72
2019-02-14T01:29:23.458Z,19.72
2019-02-14T01:31:50.650Z,19.74
2019-02-14T01:34:17.830Z,19.75
2019-02-14T01:36:45.127Z,19.74
2019-02-14T01:39:12.308Z,19.72
2019-02-14T01:41:39.475Z,19.73
2019-02-14T01:44:06.705Z,19.72
2019-02-14T01:46:33.910Z,19.69
2019-02-14T01:49:01.375Z,19.72
2019-02-14T01:51:28.522Z,19.71
2019-02-14T01:53:55.762Z,19.71
2019-02-14T01:56:22.894Z,19.69
2019-02-14T01:58:50.110Z,19.71
2019-02-14T02:01:17.322Z,19.71
2019-02-14T02:03:44.517Z,19.74
2019-02-14T02:06:11.809Z,19.77
2019-02-14T02:08:38.994Z,19.77
2019-02-14T02:11:06.182Z,19.77
2019-02-14T02:13:33.404Z,19.76
2019-02-14T02:16:00.566Z,19.76
2019-02-14T02:18:28.027Z,19.75
2019-02-14T02:20:55.216Z,19.79
2019-02-14T02:23:22.366Z,19.75
2019-02-14T02:25:49.571Z,19.68
2019-02-14T02:28:16.744Z,19.65
2019-02-14T02:30:43.983Z,19.65
2019-02-14T02:33:11.158Z,19.63
2019-02-14T02:35:38.345Z,19.63
2019-02-14T02:38:05.519Z,19.61
2019-02-14T02:40:32.723Z,19.61
2019-02-14T02:43:00.009Z,19.60
2019-02-14T02:45:27.158Z,19.60
2019-02-14T02:47:54.406Z,19.59
2019-02-14T02:50:21.618Z,19.59
2019-02-14T02:52:48.799Z,19.56
2019-02-14T02:55:16.231Z,19.54
2019-02-14T02:57:43.430Z,19.57
2019-02-14T03:00:13.064Z,19.55
2019-02-14T03:02:40.384Z,19.54
2019-02-14T03:05:08.993Z,19.55
2019-02-14T03:07:36.168Z,19.55
2019-02-14T03:10:03.931Z,19.56
2019-02-14T03:12:31.139Z,19.57
2019-02-14T03:14:58.351Z,19.58
2019-02-14T03:17:25.505Z,19.59
2019-02-14T03:19:52.719Z,19.58
2019-02-14T03:22:19.891Z,19.57
2019-02-14T03:24:47.077Z,19.55
2019-02-14T03:27:14.286Z,19.57
2019-02-14T03:29:41.466Z,19.59
2019-02-14T03:32:08.705Z,19.57
2019-02-14T03:34:35.860Z,19.54
2019-02-14T03:37:03.057Z,19.56
2019-02-14T03:39:30.233Z,19.52
2019-02-14T03:41:57.465Z,19.56
2019-02-14T03:44:24.647Z,19.55
2019-02-14T03:46:51.909Z,19.53
2019-02-14T03:49:19.137Z,19.52
2019-02-14T03:51:46.326Z,19.55
2019-02-14T03:54:13.541Z,19.53
2019-02-14T03:56:40.732Z,19.55
2019-02-14T03:59:07.941Z,19.56
2019-02-14T04:01:35.174Z,19.52
2019-02-14T04:04:02.343Z,19.51
2019-02-14T04:06:29.522Z,19.51
2019-02-14T04:08:56.890Z,19.52
2019-02-14T04:11:24.073Z,19.51
2019-02-14T04:13:51.256Z,19.51
2019-02-14T04:16:18.431Z,19.51
2019-02-14T04:18:45.641Z,19.49
2019-02-14T04:21:12.825Z,19.50
2019-02-14T04:23:40.033Z,19.49
2019-02-14T04:26:07.181Z,19.48
2019-02-14T04:28:34.355Z,19.49
2019-02-14T04:31:01.604Z,19.50
2019-02-14T04:33:28.812Z,19.51
2019-02-14T04:35:55.984Z,19.52
2019-02-14T04:38:23.202Z,19.54
2019-02-14T04:40:50.409Z,19.56
2019-02-14T04:43:17.640Z,19.59
2019-02-14T04:45:44.863Z,19.60
2019-02-14T04:48:12.042Z,19.60
2019-02-14T04:50:39.210Z,19.63
2019-02-14T04:53:06.439Z,19.65
2019-02-14T04:55:33.622Z,19.63
2019-02-14T04:58:00.814Z,19.66
2019-02-14T05:00:28.075Z,19.67
2019-02-14T05:02:55.236Z,19.67
2019-02-14T05:05:22.445Z,19.69
2019-02-14T05:07:49.621Z,19.69
2019-02-14T05:10:16.815Z,19.70
2019-02-14T05:12:44.044Z,19.69
2019-02-14T05:15:11.279Z,19.68
2019-02-14T05:17:38.478Z,19.70
2019-02-14T05:20:06.666Z,19.68
2019-02-14T05:22:33.879Z,19.70
2019-02-14T05:25:01.042Z,19.72
2019-02-14T05:27:28.351Z,19.80
2019-02-14T05:29:55.502Z,19.82
2019-02-14T05:32:22.639Z,19.76
2019-02-14T05:34:49.855Z,19.73
2019-02-14T05:37:17.030Z,19.73
2019-02-14T05:39:44.373Z,19.71
2019-02-14T05:42:11.823Z,19.71
2019-02-14T05:44:39.091Z,19.71
2019-02-14T05:47:06.391Z,19.69
2019-02-14T05:49:33.585Z,19.72
2019-02-14T05:52:00.761Z,19.77
2019-02-14T05:54:28.063Z,19.75
2019-02-14T05:56:55.210Z,19.74
2019-02-14T05:59:22.427Z,19.73
2019-02-14T06:01:49.729Z,19.72
2019-02-14T06:04:16.895Z,19.72
2019-02-14T06:06:44.086Z,19.71
2019-02-14T06:09:11.281Z,19.70
2019-02-14T06:11:38.463Z,19.72
2019-02-14T06:14:05.688Z,19.75
2019-02-14T06:16:32.860Z,19.75
2019-02-14T06:19:00.102Z,19.75
2019-02-14T06:21:27.269Z,19.75
2019-02-14T06:23:54.591Z,19.74
2019-02-14T06:26:21.848Z,19.73
2019-02-14T06:28:49.155Z,19.71
2019-02-14T06:31:16.485Z,19.72
2019-02-14T06:33:44.370Z,19.75
2019-02-14T06:36:11.711Z,19.76
2019-02-14T06:38:38.869Z,19.78
2019-02-14T06:41:06.053Z,19.78
2019-02-14T06:43:33.409Z,19.73
2019-02-14T06:46:00.596Z,19.74
2019-02-14T06:48:30.157Z,19.73
2019-02-14T06:51:00.452Z,19.76
2019-02-14T06:53:27.910Z,19.75
2019-02-14T06:55:55.152Z,19.75
2019-02-14T06:58:22.302Z,19.73
2019-02-14T07:00:49.476Z,19.74
2019-02-14T07:03:16.719Z,19.73
2019-02-14T07:05:43.891Z,19.77
2019-02-14T07:08:12.150Z,19.81
2019-02-14T07:10:39.561Z,19.80
2019-02-14T07:13:07.001Z,19.77
2019-02-14T07:15:34.285Z,19.77
2019-02-14T07:18:01.546Z,19.77
2019-02-14T07:20:28.776Z,19.76
2019-02-14T07:22:55.985Z,19.80
2019-02-14T07:25:23.181Z,19.77
2019-02-14T07:27:50.388Z,19.81
2019-02-14T07:30:18.616Z,19.75
2019-02-14T07:32:46.060Z,19.73
2019-02-14T07:35:13.571Z,19.70
2019-02-14T07:37:41.256Z,19.66
2019-02-14T07:40:10.319Z,19.66
2019-02-14T07:42:37.694Z,19.68
2019-02-14T07:45:06.558Z,19.64
2019-02-14T07:47:33.718Z,19.65
2019-02-14T07:50:00.956Z,19.64
2019-02-14T07:52:28.239Z,19.67
2019-02-14T07:54:55.502Z,19.67
2019-02-14T07:57:22.806Z,19.65
2019-02-14T07:59:50.015Z,19.66
2019-02-14T08:02:17.225Z,19.66
2019-02-14T08:04:44.449Z,19.67
2019-02-14T08:07:11.611Z,19.67
2019-02-14T08:09:38.783Z,19.65
2019-02-14T08:12:06.063Z,19.66
2019-02-14T08:14:33.226Z,19.68
2019-02-14T08:17:00.472Z,19.69
2019-02-14T08:19:27.799Z,19.71
2019-02-14T08:21:55.208Z,19.74
2019-02-14T08:24:22.400Z,19.75
2019-02-14T08:26:49.682Z,19.78
2019-02-14T08:29:16.981Z,19.80
2019-02-14T08:31:44.203Z,19.82
2019-02-14T08:34:11.521Z,19.85
2019-02-14T08:36:38.768Z,19.86
2019-02-14T08:39:05.967Z,19.89
2019-02-14T08:41:33.186Z,19.88
2019-02-14T08:44:00.546Z,19.91
2019-02-14T08:46:27.867Z,19.95
2019-02-14T08:48:55.100Z,19.91
2019-02-14T08:51:22.374Z,19.93
2019-02-14T08:53:49.603Z,19.95
2019-02-14T08:56:16.750Z,19.94
2019-02-14T08:58:43.958Z,19.92
2019-02-14T09:01:11.228Z,19.90
2019-02-14T09:03:38.396Z,19.91
2019-02-14T09:06:05.787Z,19.97
2019-02-14T09:08:32.959Z,19.98
2019-02-14T09:11:00.203Z,20.00
2019-02-14T09:13:27.471Z,20.00
2019-02-14T09:15:54.639Z,20.01
2019-02-14T09:18:21.864Z,20.03
2019-02-14T09:20:49.238Z,20.02
2019-02-14T09:23:16.451Z,20.05
2019-02-14T09:25:43.779Z,20.02
2019-02-14T09:28:11.051Z,20.05
2019-02-14T09:30:38.280Z,20.06
2019-02-14T09:33:05.504Z,20.12
2019-02-14T09:35:32.694Z,20.14
2019-02-14T09:38:03.226Z,20.18
2019-02-14T09:40:29.191Z,20.16
2019-02-14T09:42:56.503Z,20.14
2019-02-14T09:45:23.744Z,20.15
2019-02-14T09:47:51.131Z,20.22
2019-02-14T09:50:18.445Z,20.23
2019-02-14T09:52:45.716Z,20.24
2019-02-14T09:55:12.931Z,20.26
2019-02-14T09:57:40.144Z,20.25
2019-02-14T10:00:10.403Z,20.21
2019-02-14T10:02:37.611Z,20.21
2019-02-14T10:05:05.122Z,20.17
2019-02-14T10:07:32.421Z,20.23
2019-02-14T10:09:59.742Z,20.22
2019-02-14T10:12:26.958Z,20.23
2019-02-14T10:14:54.204Z,20.29
2019-02-14T10:17:22.446Z,20.30
2019-02-14T10:19:49.807Z,20.28
2019-02-14T10:22:16.997Z,20.26
2019-02-14T10:24:44.354Z,20.29
2019-02-14T10:27:11.575Z,20.33
2019-02-14T10:29:38.799Z,20.37
2019-02-14T10:32:06.078Z,20.40
2019-02-14T10:34:33.345Z,20.42
2019-02-14T10:37:00.628Z,20.46
2019-02-14T10:39:27.880Z,20.54
2019-02-14T10:41:55.200Z,20.59
2019-02-14T10:44:22.403Z,20.62
2019-02-14T10:46:49.747Z,20.62
2019-02-14T10:49:17.044Z,20.65
2019-02-14T10:51:44.289Z,20.70
2019-02-14T10:54:13.547Z,20.73
2019-02-14T10:56:41.583Z,20.74
2019-02-14T10:59:09.039Z,20.70
2019-02-14T11:01:37.359Z,20.70
2019-02-14T11:04:04.809Z,20.68
2019-02-14T11:06:33.641Z,20.73
2019-02-14T11:09:00.933Z,20.82
2019-02-14T11:11:28.334Z,20.86
2019-02-14T11:13:55.503Z,20.90
2019-02-14T11:16:22.672Z,20.94
2019-02-14T11:18:49.865Z,20.97
2019-02-14T11:21:17.083Z,20.95
2019-02-14T11:23:44.337Z,20.90
2019-02-14T11:26:11.696Z,20.89
2019-02-14T11:28:38.960Z,20.99
2019-02-14T11:31:06.111Z,20.98
2019-02-14T11:33:33.324Z,20.94
2019-02-14T11:36:00.703Z,20.87
2019-02-14T11:38:27.914Z,20.88
2019-02-14T11:40:55.105Z,20.88
2019-02-14T11:43:22.419Z,20.87
2019-02-14T11:45:49.708Z,20.86
2019-02-14T11:48:17.200Z,20.88
2019-02-14T11:50:44.357Z,20.92
2019-02-14T11:53:14.314Z,20.94
2019-02-14T11:55:40.685Z,20.94
2019-02-14T11:58:08.084Z,21.00
2019-02-14T12:00:35.272Z,21.00
2019-02-14T12:03:02.605Z,21.04
2019-02-14T12:05:29.811Z,21.04
2019-02-14T12:07:57.038Z,21.04
2019-02-14T12:10:24.391Z,21.13
2019-02-14T12:12:51.574Z,21.21
2019-02-14T12:15:18.830Z,21.25
2019-02-14T12:17:46.104Z,21.25
2019-02-14T12:20:13.395Z,21.29
2019-02-14T12:22:46.581Z,21.32
2019-02-14T12:25:10.582Z,21.35
2019-02-14T12:27:37.811Z,21.37
2019-02-14T12:30:07.037Z,21.44
2019-02-14T12:32:34.362Z,21.43
2019-02-14T12:35:01.652Z,21.44
2019-02-14T12:37:28.946Z,21.47
2019-02-14T12:39:56.224Z,21.46
2019-02-14T12:42:23.567Z,21.48
2019-02-14T12:44:50.825Z,21.52
2019-02-14T12:47:18.142Z,21.52
2019-02-14T12:49:45.359Z,21.54
2019-02-14T12:52:12.583Z,21.57
2019-02-14T12:54:39.762Z,21.64
2019-02-14T12:57:07.007Z,21.67
2019-02-14T12:59:34.326Z,21.71
2019-02-14T13:02:01.620Z,21.67
2019-02-14T13:04:28.827Z,21.67
2019-02-14T13:06:56.051Z,21.68
2019-02-14T13:09:23.290Z,21.74
2019-02-14T13:11:50.472Z,21.74
2019-02-14T13:14:17.632Z,21.73
2019-02-14T13:16:44.843Z,21.76
2019-02-14T13:19:12.026Z,21.77
2019-02-14T13:21:39.318Z,21.77
2019-02-14T13:24:06.519Z,21.78
2019-02-14T13:26:33.691Z,21.83
2019-02-14T13:29:01.053Z,21.87
2019-02-14T13:31:32.060Z,21.95
2019-02-14T13:33:57.373Z,21.99
2019-02-14T13:36:24.605Z,22.05
2019-02-14T13:38:51.826Z,22.11
2019-02-14T13:41:19.045Z,22.15
2019-02-14T13:43:46.447Z,22.19
2019-02-14T13:46:13.721Z,22.22
2019-02-14T13:48:41.041Z,22.25
2019-02-14T13:51:08.340Z,22.27
2019-02-14T13:53:37.463Z,22.29
2019-02-14T13:56:04.708Z,22.34
2019-02-14T13:58:31.869Z,22.36
2019-02-14T14:00:59.124Z,22.36
2019-02-14T14:03:26.352Z,22.38
2019-02-14T14:05:53.504Z,22.38
2019-02-14T14:08:21.702Z,22.35
2019-02-14T14:10:48.952Z,22.36
2019-02-14T14:13:16.385Z,22.38
2019-02-14T14:15:43.608Z,22.43
2019-02-14T14:18:10.781Z,22.44
2019-02-14T14:20:38.062Z,22.42
2019-02-14T14:23:05.230Z,22.43
2019-02-14T14:25:32.432Z,22.43
2019-02-14T14:27:59.749Z,22.42
2019-02-14T14:30:26.909Z,22.43
2019-02-14T14:32:54.350Z,22.47
2019-02-14T14:35:21.565Z,22.53
2019-02-14T14:37:48.758Z,22.59
2019-02-14T14:40:16.053Z,22.62
2019-02-14T14:43:05.838Z,22.68
2019-02-14T14:45:55.947Z,22.75
2019-02-14T14:48:24.842Z,22.87
2019-02-14T14:50:52.009Z,23.00
2019-02-14T14:53:19.219Z,23.08
2019-02-14T14:55:46.396Z,23.17
2019-02-14T14:58:13.624Z,23.21
2019-02-14T15:00:40.892Z,23.28
2019-02-14T15:03:08.186Z,23.30
2019-02-14T15:05:35.522Z,23.33
2019-02-14T15:08:02.712Z,23.33
2019-02-14T15:10:29.936Z,23.35
2019-02-14T15:12:57.182Z,23.38
2019-02-14T15:15:24.381Z,23.36
2019-02-14T15:17:51.562Z,23.31
2019-02-14T15:20:18.724Z,23.30
2019-02-14T15:22:46.069Z,23.29
2019-02-14T15:25:13.313Z,23.28
2019-02-14T15:27:40.544Z,23.28
2019-02-14T15:30:07.753Z,23.23
2019-02-14T15:32:35.005Z,23.19
2019-02-14T15:35:02.286Z,23.18
2019-02-14T15:37:32.055Z,23.15
2019-02-14T15:40:08.638Z,23.15
2019-02-14T15:42:28.404Z,23.11
2019-02-14T15:44:55.765Z,23.04
2019-02-14T15:47:23.171Z,23.05
2019-02-14T15:49:50.460Z,23.01
2019-02-14T15:52:17.911Z,22.95
2019-02-14T15:54:45.167Z,22.93
2019-02-14T15:57:12.323Z,22.93
2019-02-14T15:59:41.145Z,22.96
2019-02-14T16:02:08.664Z,22.95
2019-02-14T16:04:35.899Z,22.85
2019-02-14T16:07:03.162Z,22.82
2019-02-14T16:09:30.395Z,22.75
2019-02-14T16:11:57.988Z,22.72
2019-02-14T16:14:25.376Z,22.68
2019-02-14T16:16:52.606Z,22.57
2019-02-14T16:19:19.822Z,22.43
2019-02-14T16:21:47.052Z,22.34
2019-02-14T16:24:14.843Z,22.20
2019-02-14T16:26:43.640Z,22.15
2019-02-14T16:29:11.867Z,22.06
2019-02-14T16:31:39.065Z,21.99
2019-02-14T16:34:06.271Z,21.91
2019-02-14T16:36:33.628Z,21.84
2019-02-14T16:39:01.378Z,21.76
2019-02-14T16:41:28.821Z,21.69
2019-02-14T16:43:56.014Z,21.62
2019-02-14T16:46:23.388Z,21.54
2019-02-14T16:48:50.733Z,21.48
2019-02-14T16:51:17.945Z,21.41
2019-02-14T16:53:45.135Z,21.37
2019-02-14T16:56:12.388Z,21.32
2019-02-14T16:58:39.649Z,21.27
2019-02-14T17:01:06.979Z,21.24
2019-02-14T17:03:34.328Z,21.20
2019-02-14T17:06:01.912Z,21.15
2019-02-14T17:08:29.067Z,21.09
2019-02-14T17:10:56.230Z,21.02
2019-02-14T17:13:23.494Z,20.97
2019-02-14T17:15:50.681Z,20.92
2019-02-14T17:18:17.879Z,20.89
2019-02-14T17:20:45.080Z,20.84
2019-02-14T17:23:12.254Z,20.79
2019-02-14T17:25:39.449Z,20.76
2019-02-14T17:28:06.666Z,20.73
2019-02-14T17:30:33.848Z,20.69
2019-02-14T17:33:01.181Z,20.67
2019-02-14T17:35:28.366Z,20.61
2019-02-14T17:37:55.509Z,20.59
2019-02-14T17:40:22.708Z,20.56
2019-02-14T17:42:50.179Z,20.52
2019-02-14T17:45:17.370Z,20.48
2019-02-14T17:47:44.647Z,20.43
2019-02-14T17:50:11.813Z,20.41
2019-02-14T17:52:38.990Z,20.38
2019-02-14T17:55:06.527Z,20.36
2019-02-14T17:57:33.734Z,20.34
2019-02-14T18:00:00.980Z,20.30
2019-02-14T18:02:28.697Z,20.31
2019-02-14T18:04:56.147Z,20.29
2019-02-14T18:07:23.366Z,20.27
2019-02-14T18:09:50.610Z,20.26
2019-02-14T18:12:19.635Z,20.23
2019-02-14T18:14:50.311Z,20.20
2019-02-14T18:17:17.696Z,20.15
2019-02-14T18:19:44.942Z,20.12
2019-02-14T18:22:12.341Z,20.08
2019-02-14T18:24:39.590Z,20.08
2019-02-14T18:27:08.664Z,20.07
2019-02-14T18:29:36.061Z,20.13
2019-02-14T18:32:04.578Z,20.17
2019-02-14T18:34:32.094Z,20.16
2019-02-14T18:36:59.451Z,20.16
2019-02-14T18:39:26.711Z,20.16
2019-02-14T18:41:54.017Z,20.18
2019-02-14T18:44:21.177Z,20.22
2019-02-14T18:46:48.418Z,20.20
2019-02-14T18:49:15.730Z,20.10
2019-02-14T18:51:42.918Z,20.00
2019-02-14T18:54:10.175Z,19.95
2019-02-14T18:56:37.368Z,19.92
2019-02-14T18:59:04.552Z,19.86
2019-02-14T19:01:31.791Z,19.83
2019-02-14T19:03:58.982Z,19.87
2019-02-14T19:06:26.199Z,19.90
2019-02-14T19:08:53.420Z,19.91
2019-02-14T19:11:20.692Z,19.84
2019-02-14T19:13:47.921Z,19.76
2019-02-14T19:16:15.096Z,19.72
2019-02-14T19:18:42.343Z,19.71
2019-02-14T19:21:09.897Z,19.69
2019-02-14T19:23:37.072Z,19.67
2019-02-14T19:26:04.298Z,19.70
2019-02-14T19:28:31.570Z,19.69
2019-02-14T19:30:58.990Z,19.75
2019-02-14T19:33:26.164Z,19.79
2019-02-14T19:35:53.659Z,19.79
2019-02-14T19:38:20.894Z,19.80
2019-02-14T19:40:48.245Z,19.91
2019-02-14T19:43:15.413Z,19.83
2019-02-14T19:45:42.719Z,19.86
2019-02-14T19:48:09.994Z,19.76
2019-02-14T19:50:37.215Z,19.69
2019-02-14T19:53:04.442Z,19.64
2019-02-14T19:55:31.695Z,19.62
2019-02-14T19:57:59.353Z,19.70
2019-02-14T20:00:26.646Z,19.72
2019-02-14T20:02:53.850Z,19.71
2019-02-14T20:05:21.096Z,19.74
2019-02-14T20:07:48.376Z,19.71
2019-02-14T20:10:15.672Z,19.62
2019-02-14T20:12:42.898Z,19.55
2019-02-14T20:15:11.869Z,19.50
2019-02-14T20:17:39.137Z,19.46
2019-02-14T20:20:07.630Z,19.43
2019-02-14T20:22:34.845Z,19.45
2019-02-14T20:25:02.121Z,19.52
2019-02-14T20:27:29.338Z,19.69
2019-02-14T20:29:56.607Z,19.72
2019-02-14T20:32:23.782Z,19.66
2019-02-14T20:34:51.060Z,19.55
2019-02-14T20:37:18.260Z,19.47
2019-02-14T20:39:45.443Z,19.39
2019-02-14T20:42:12.643Z,19.36
2019-02-14T20:44:39.855Z,19.35
2019-02-14T20:47:07.248Z,19.36
2019-02-14T20:49:34.505Z,19.34
2019-02-14T20:52:01.749Z,19.30
2019-02-14T20:54:28.972Z,19.30
2019-02-14T20:56:56.169Z,19.29
2019-02-14T20:59:23.500Z,19.24
2019-02-14T21:01:51.262Z,19.22
2019-02-14T21:04:18.463Z,19.21
2019-02-14T21:06:46.284Z,19.18
2019-02-14T21:09:14.025Z,19.17
2019-02-14T21:11:41.347Z,19.14
2019-02-14T21:14:08.523Z,19.13
2019-02-14T21:16:35.714Z,19.13
2019-02-14T21:19:02.949Z,19.12
2019-02-14T21:21:30.141Z,19.12
2019-02-14T21:23:57.521Z,19.11
2019-02-14T21:26:24.686Z,19.08
2019-02-14T21:28:51.888Z,19.06
2019-02-14T21:31:19.113Z,19.04
2019-02-14T21:33:46.305Z,19.06
2019-02-14T21:36:13.645Z,19.07
2019-02-14T21:38:40.965Z,19.05
2019-02-14T21:41:08.298Z,19.03
2019-02-14T21:43:35.950Z,19.01
2019-02-14T21:46:03.270Z,19.00
2019-02-14T21:48:30.549Z,18.98
2019-02-14T21:50:57.767Z,18.95
2019-02-14T21:53:25.128Z,18.97
2019-02-14T21:55:52.505Z,19.13
2019-02-14T21:58:20.823Z,19.28
2019-02-14T22:00:49.214Z,19.30
2019-02-14T22:03:17.136Z,19.24
2019-02-14T22:05:44.526Z,19.23
2019-02-14T22:08:11.920Z,19.24
2019-02-14T22:10:39.636Z,19.32
2019-02-14T22:13:07.037Z,19.36
2019-02-14T22:15:34.246Z,19.33
2019-02-14T22:18:01.809Z,19.29
2019-02-14T22:20:29.282Z,19.25
2019-02-14T22:22:56.777Z,19.25
2019-02-14T22:25:23.958Z,19.29
2019-02-14T22:27:51.172Z,19.28
2019-02-14T22:30:18.414Z,19.31
2019-02-14T22:32:45.799Z,19.28
2019-02-14T22:35:13.218Z,19.27
2019-02-14T22:37:40.467Z,19.23
2019-02-14T22:40:08.245Z,19.17
2019-02-14T22:42:35.446Z,19.03
2019-02-14T22:45:02.696Z,19.07
2019-02-14T22:47:30.184Z,19.18
2019-02-14T22:49:57.387Z,19.21
2019-02-14T22:52:25.048Z,19.13
2019-02-14T22:54:52.241Z,19.13
2019-02-14T22:57:19.491Z,19.16
2019-02-14T22:59:46.679Z,19.10
2019-02-14T23:02:14.007Z,19.14
2019-02-14T23:04:41.229Z,19.11
2019-02-14T23:07:08.556Z,19.17
2019-02-14T23:09:35.913Z,19.18
2019-02-14T23:12:03.078Z,19.14
2019-02-14T23:14:30.489Z,19.11
2019-02-14T23:16:57.683Z,19.14
2019-02-14T23:19:24.878Z,19.10
2019-02-14T23:21:52.115Z,19.10
2019-02-14T23:24:19.325Z,19.12
2019-02-14T23:26:46.672Z,19.18
2019-02-14T23:29:13.831Z,19.29
2019-02-14T23:31:41.034Z,19.27
2019-02-14T23:34:08.249Z,19.22
2019-02-14T23:36:35.430Z,19.23
2019-02-14T23:39:04.222Z,19.22
2019-02-14T23:41:31.496Z,19.15
2019-02-14T23:43:58.658Z,19.13
2019-02-14T23:46:26.567Z,19.06
2019-02-14T23:48:53.946Z,19.09
2019-02-14T23:51:21.174Z,19.17
2019-02-14T23:53:48.435Z,19.16
2019-02-14T23:56:15.675Z,18.98
2019-02-14T23:58:43.060Z,18.83
